sensor_id;sensor_type;location;lat;lon;timestamp;P1;durP1;ratioP1;P2;durP2;ratioP2
78752;SDS011;68072;51.688;7.842;2024-01-16T00:00:27;2.37;;;2.17;;
78752;SDS011;68072;51.688;7.842;2024-01-16T00:02:52;3.35;;;2.92;;
78752;SDS011;68072;51.688;7.842;2024-01-16T00:05:18;3.83;;;2.97;;
78752;SDS011;68072;51.688;7.842;2024-01-16T00:07:43;2.33;;;2.03;;
78752;SDS011;68072;51.688;7.842;2024-01-16T00:10:09;6.45;;;3.17;;
78752;SDS011;68072;51.688;7.842;2024-01-16T00:12:34;7.60;;;3.72;;
78752;SDS011;68072;51.688;7.842;2024-01-16T00:14:59;4.07;;;2.80;;
78752;SDS011;68072;51.688;7.842;2024-01-16T00:17:24;4.23;;;2.33;;
78752;SDS011;68072;51.688;7.842;2024-01-16T00:19:50;11.07;;;3.93;;
78752;SDS011;68072;51.688;7.842;2024-01-16T00:22:15;1.87;;;1.77;;
78752;SDS011;68072;51.688;7.842;2024-01-16T00:24:40;4.82;;;2.60;;
78752;SDS011;68072;51.688;7.842;2024-01-16T00:27:06;2.73;;;2.40;;
78752;SDS011;68072;51.688;7.842;2024-01-16T00:29:31;3.00;;;2.20;;
78752;SDS011;68072;51.688;7.842;2024-01-16T00:31:56;2.70;;;2.50;;
78752;SDS011;68072;51.688;7.842;2024-01-16T00:34:22;2.80;;;1.77;;
78752;SDS011;68072;51.688;7.842;2024-01-16T00:36:47;8.00;;;3.10;;
78752;SDS011;68072;51.688;7.842;2024-01-16T00:39:12;6.82;;;2.92;;
78752;SDS011;68072;51.688;7.842;2024-01-16T00:41:38;7.82;;;3.25;;
78752;SDS011;68072;51.688;7.842;2024-01-16T00:44:04;4.32;;;2.90;;
78752;SDS011;68072;51.688;7.842;2024-01-16T00:46:29;3.72;;;3.10;;
78752;SDS011;68072;51.688;7.842;2024-01-16T00:48:54;2.23;;;2.10;;
78752;SDS011;68072;51.688;7.842;2024-01-16T00:51:19;3.23;;;2.30;;
78752;SDS011;68072;51.688;7.842;2024-01-16T00:53:45;4.63;;;2.23;;
78752;SDS011;68072;51.688;7.842;2024-01-16T00:56:10;4.18;;;2.75;;
78752;SDS011;68072;51.688;7.842;2024-01-16T00:58:35;5.65;;;3.95;;
78752;SDS011;68072;51.688;7.842;2024-01-16T01:01:01;4.80;;;2.92;;
78752;SDS011;68072;51.688;7.842;2024-01-16T01:03:26;5.80;;;3.43;;
78752;SDS011;68072;51.688;7.842;2024-01-16T01:05:51;4.53;;;3.00;;
78752;SDS011;68072;51.688;7.842;2024-01-16T01:08:17;8.93;;;3.35;;
78752;SDS011;68072;51.688;7.842;2024-01-16T01:10:42;4.47;;;3.17;;
78752;SDS011;68072;51.688;7.842;2024-01-16T01:13:07;9.10;;;3.40;;
78752;SDS011;68072;51.688;7.842;2024-01-16T01:15:33;6.10;;;4.00;;
78752;SDS011;68072;51.688;7.842;2024-01-16T01:17:58;8.40;;;5.13;;
78752;SDS011;68072;51.688;7.842;2024-01-16T01:20:23;8.20;;;3.63;;
78752;SDS011;68072;51.688;7.842;2024-01-16T01:22:48;6.70;;;3.50;;
78752;SDS011;68072;51.688;7.842;2024-01-16T01:25:14;9.93;;;3.90;;
78752;SDS011;68072;51.688;7.842;2024-01-16T01:27:39;15.13;;;4.40;;
78752;SDS011;68072;51.688;7.842;2024-01-16T01:30:08;9.20;;;6.03;;
78752;SDS011;68072;51.688;7.842;2024-01-16T01:32:36;3.55;;;2.80;;
78752;SDS011;68072;51.688;7.842;2024-01-16T01:35:01;6.28;;;4.72;;
78752;SDS011;68072;51.688;7.842;2024-01-16T01:37:27;8.48;;;4.90;;
78752;SDS011;68072;51.688;7.842;2024-01-16T01:39:52;5.30;;;3.77;;
78752;SDS011;68072;51.688;7.842;2024-01-16T01:42:17;6.37;;;3.23;;
78752;SDS011;68072;51.688;7.842;2024-01-16T01:44:42;10.30;;;5.17;;
78752;SDS011;68072;51.688;7.842;2024-01-16T01:47:08;2.83;;;2.57;;
78752;SDS011;68072;51.688;7.842;2024-01-16T01:49:33;9.32;;;5.95;;
78752;SDS011;68072;51.688;7.842;2024-01-16T01:51:59;7.18;;;3.78;;
78752;SDS011;68072;51.688;7.842;2024-01-16T01:54:24;3.80;;;2.57;;
78752;SDS011;68072;51.688;7.842;2024-01-16T01:56:51;9.27;;;5.60;;
78752;SDS011;68072;51.688;7.842;2024-01-16T01:59:19;11.00;;;4.83;;
78752;SDS011;68072;51.688;7.842;2024-01-16T02:01:47;11.70;;;6.13;;
78752;SDS011;68072;51.688;7.842;2024-01-16T02:04:16;7.10;;;4.68;;
78752;SDS011;68072;51.688;7.842;2024-01-16T02:06:42;7.03;;;3.75;;
78752;SDS011;68072;51.688;7.842;2024-01-16T02:11:34;4.72;;;2.50;;
78752;SDS011;68072;51.688;7.842;2024-01-16T02:13:59;2.47;;;2.23;;
78752;SDS011;68072;51.688;7.842;2024-01-16T02:16:25;6.57;;;3.77;;
78752;SDS011;68072;51.688;7.842;2024-01-16T02:18:50;3.60;;;2.50;;
78752;SDS011;68072;51.688;7.842;2024-01-16T02:21:24;9.02;;;4.03;;
78752;SDS011;68072;51.688;7.842;2024-01-16T02:23:50;11.18;;;4.45;;
78752;SDS011;68072;51.688;7.842;2024-01-16T02:26:17;11.13;;;4.03;;
78752;SDS011;68072;51.688;7.842;2024-01-16T02:28:42;7.15;;;4.22;;
78752;SDS011;68072;51.688;7.842;2024-01-16T02:31:07;11.30;;;4.90;;
78752;SDS011;68072;51.688;7.842;2024-01-16T02:33:33;7.60;;;5.07;;
78752;SDS011;68072;51.688;7.842;2024-01-16T02:35:58;6.23;;;3.70;;
78752;SDS011;68072;51.688;7.842;2024-01-16T02:38:23;14.87;;;4.90;;
78752;SDS011;68072;51.688;7.842;2024-01-16T02:40:49;3.92;;;2.90;;
78752;SDS011;68072;51.688;7.842;2024-01-16T02:43:14;9.77;;;5.00;;
78752;SDS011;68072;51.688;7.842;2024-01-16T02:45:39;3.40;;;2.57;;
78752;SDS011;68072;51.688;7.842;2024-01-16T02:48:05;7.43;;;5.17;;
78752;SDS011;68072;51.688;7.842;2024-01-16T02:50:30;6.72;;;3.70;;
78752;SDS011;68072;51.688;7.842;2024-01-16T02:52:55;35.73;;;4.93;;
78752;SDS011;68072;51.688;7.842;2024-01-16T02:55:21;4.37;;;3.73;;
78752;SDS011;68072;51.688;7.842;2024-01-16T02:57:46;2.77;;;2.57;;
78752;SDS011;68072;51.688;7.842;2024-01-16T03:00:11;7.73;;;5.33;;
78752;SDS011;68072;51.688;7.842;2024-01-16T03:02:36;12.60;;;5.88;;
78752;SDS011;68072;51.688;7.842;2024-01-16T03:05:02;10.67;;;5.17;;
78752;SDS011;68072;51.688;7.842;2024-01-16T03:07:28;12.32;;;5.65;;
78752;SDS011;68072;51.688;7.842;2024-01-16T03:09:53;7.77;;;4.53;;
78752;SDS011;68072;51.688;7.842;2024-01-16T03:12:18;10.50;;;6.83;;
78752;SDS011;68072;51.688;7.842;2024-01-16T03:14:43;6.73;;;4.07;;
78752;SDS011;68072;51.688;7.842;2024-01-16T03:17:09;7.70;;;4.82;;
78752;SDS011;68072;51.688;7.842;2024-01-16T03:19:35;5.63;;;3.90;;
78752;SDS011;68072;51.688;7.842;2024-01-16T03:22:00;9.17;;;4.87;;
78752;SDS011;68072;51.688;7.842;2024-01-16T03:24:26;13.27;;;5.53;;
78752;SDS011;68072;51.688;7.842;2024-01-16T03:26:51;15.17;;;4.70;;
78752;SDS011;68072;51.688;7.842;2024-01-16T03:29:16;8.77;;;4.10;;
78752;SDS011;68072;51.688;7.842;2024-01-16T03:31:41;8.47;;;4.70;;
78752;SDS011;68072;51.688;7.842;2024-01-16T03:34:07;7.13;;;3.90;;
78752;SDS011;68072;51.688;7.842;2024-01-16T03:36:35;7.18;;;4.57;;
78752;SDS011;68072;51.688;7.842;2024-01-16T03:39:01;5.88;;;3.38;;
78752;SDS011;68072;51.688;7.842;2024-01-16T03:41:26;19.07;;;5.00;;
78752;SDS011;68072;51.688;7.842;2024-01-16T03:43:51;4.67;;;2.50;;
78752;SDS011;68072;51.688;7.842;2024-01-16T03:46:16;3.00;;;2.70;;
78752;SDS011;68072;51.688;7.842;2024-01-16T03:48:42;3.43;;;2.60;;
78752;SDS011;68072;51.688;7.842;2024-01-16T03:51:07;4.70;;;2.80;;
78752;SDS011;68072;51.688;7.842;2024-01-16T03:53:32;7.30;;;3.83;;
78752;SDS011;68072;51.688;7.842;2024-01-16T03:55:57;17.60;;;6.37;;
78752;SDS011;68072;51.688;7.842;2024-01-16T03:58:23;6.93;;;3.78;;
78752;SDS011;68072;51.688;7.842;2024-01-16T04:00:48;3.77;;;3.10;;
78752;SDS011;68072;51.688;7.842;2024-01-16T04:03:16;14.75;;;5.75;;
78752;SDS011;68072;51.688;7.842;2024-01-16T04:05:41;9.90;;;5.03;;
78752;SDS011;68072;51.688;7.842;2024-01-16T04:08:06;6.97;;;4.53;;
78752;SDS011;68072;51.688;7.842;2024-01-16T04:10:31;11.30;;;5.53;;
78752;SDS011;68072;51.688;7.842;2024-01-16T04:12:59;6.23;;;3.23;;
78752;SDS011;68072;51.688;7.842;2024-01-16T04:15:24;8.57;;;4.55;;
78752;SDS011;68072;51.688;7.842;2024-01-16T04:17:50;25.23;;;5.60;;
78752;SDS011;68072;51.688;7.842;2024-01-16T04:20:15;8.70;;;4.60;;
78752;SDS011;68072;51.688;7.842;2024-01-16T04:22:40;8.45;;;5.50;;
78752;SDS011;68072;51.688;7.842;2024-01-16T04:25:06;7.77;;;5.20;;
78752;SDS011;68072;51.688;7.842;2024-01-16T04:27:31;8.20;;;4.80;;
78752;SDS011;68072;51.688;7.842;2024-01-16T04:29:57;10.65;;;4.55;;
78752;SDS011;68072;51.688;7.842;2024-01-16T04:32:22;7.70;;;4.27;;
78752;SDS011;68072;51.688;7.842;2024-01-16T04:34:47;13.07;;;7.53;;
78752;SDS011;68072;51.688;7.842;2024-01-16T04:37:12;15.67;;;7.10;;
78752;SDS011;68072;51.688;7.842;2024-01-16T04:39:38;12.23;;;6.47;;
78752;SDS011;68072;51.688;7.842;2024-01-16T04:42:03;10.43;;;5.47;;
78752;SDS011;68072;51.688;7.842;2024-01-16T04:44:29;15.07;;;8.10;;
78752;SDS011;68072;51.688;7.842;2024-01-16T04:46:54;10.93;;;5.43;;
78752;SDS011;68072;51.688;7.842;2024-01-16T04:49:19;9.50;;;5.67;;
78752;SDS011;68072;51.688;7.842;2024-01-16T04:51:44;12.37;;;6.40;;
78752;SDS011;68072;51.688;7.842;2024-01-16T04:54:10;10.17;;;5.53;;
78752;SDS011;68072;51.688;7.842;2024-01-16T04:56:36;4.93;;;3.90;;
78752;SDS011;68072;51.688;7.842;2024-01-16T04:59:01;15.80;;;7.67;;
78752;SDS011;68072;51.688;7.842;2024-01-16T05:01:27;10.60;;;5.03;;
78752;SDS011;68072;51.688;7.842;2024-01-16T05:03:52;14.03;;;5.93;;
78752;SDS011;68072;51.688;7.842;2024-01-16T05:06:17;16.17;;;5.87;;
78752;SDS011;68072;51.688;7.842;2024-01-16T05:08:42;10.13;;;5.50;;
78752;SDS011;68072;51.688;7.842;2024-01-16T05:11:08;10.00;;;5.28;;
78752;SDS011;68072;51.688;7.842;2024-01-16T05:13:33;15.75;;;6.47;;
78752;SDS011;68072;51.688;7.842;2024-01-16T05:15:59;16.15;;;6.95;;
78752;SDS011;68072;51.688;7.842;2024-01-16T05:18:24;10.97;;;6.07;;
78752;SDS011;68072;51.688;7.842;2024-01-16T05:20:49;18.27;;;8.53;;
78752;SDS011;68072;51.688;7.842;2024-01-16T05:23:14;8.50;;;5.67;;
78752;SDS011;68072;51.688;7.842;2024-01-16T05:25:40;9.83;;;5.33;;
78752;SDS011;68072;51.688;7.842;2024-01-16T05:28:05;13.47;;;7.10;;
78752;SDS011;68072;51.688;7.842;2024-01-16T05:30:30;9.03;;;5.23;;
78752;SDS011;68072;51.688;7.842;2024-01-16T05:32:55;11.87;;;5.33;;
78752;SDS011;68072;51.688;7.842;2024-01-16T05:35:25;16.65;;;7.53;;
78752;SDS011;68072;51.688;7.842;2024-01-16T05:37:51;19.40;;;8.37;;
78752;SDS011;68072;51.688;7.842;2024-01-16T05:40:16;15.33;;;6.03;;
78752;SDS011;68072;51.688;7.842;2024-01-16T05:42:41;12.97;;;5.83;;
78752;SDS011;68072;51.688;7.842;2024-01-16T05:45:06;9.73;;;5.67;;
78752;SDS011;68072;51.688;7.842;2024-01-16T05:47:32;16.10;;;7.57;;
78752;SDS011;68072;51.688;7.842;2024-01-16T05:49:57;22.07;;;8.70;;
78752;SDS011;68072;51.688;7.842;2024-01-16T05:52:22;11.87;;;6.03;;
78752;SDS011;68072;51.688;7.842;2024-01-16T05:54:48;12.07;;;5.80;;
78752;SDS011;68072;51.688;7.842;2024-01-16T05:57:13;11.00;;;5.63;;
78752;SDS011;68072;51.688;7.842;2024-01-16T05:59:38;26.60;;;5.53;;
78752;SDS011;68072;51.688;7.842;2024-01-16T06:02:03;7.03;;;4.50;;
78752;SDS011;68072;51.688;7.842;2024-01-16T06:04:29;10.88;;;6.00;;
78752;SDS011;68072;51.688;7.842;2024-01-16T06:06:54;14.03;;;6.37;;
78752;SDS011;68072;51.688;7.842;2024-01-16T06:09:19;11.17;;;6.27;;
78752;SDS011;68072;51.688;7.842;2024-01-16T06:11:44;10.77;;;5.00;;
78752;SDS011;68072;51.688;7.842;2024-01-16T06:14:10;11.60;;;6.57;;
78752;SDS011;68072;51.688;7.842;2024-01-16T06:19:02;9.80;;;5.40;;
78752;SDS011;68072;51.688;7.842;2024-01-16T06:21:27;11.63;;;5.97;;
78752;SDS011;68072;51.688;7.842;2024-01-16T06:23:52;7.07;;;4.47;;
78752;SDS011;68072;51.688;7.842;2024-01-16T06:26:18;16.90;;;6.83;;
78752;SDS011;68072;51.688;7.842;2024-01-16T06:28:43;8.70;;;4.80;;
78752;SDS011;68072;51.688;7.842;2024-01-16T06:31:08;13.33;;;6.70;;
78752;SDS011;68072;51.688;7.842;2024-01-16T06:33:34;11.30;;;5.43;;
78752;SDS011;68072;51.688;7.842;2024-01-16T06:35:59;10.83;;;5.53;;
78752;SDS011;68072;51.688;7.842;2024-01-16T06:38:24;15.20;;;6.23;;
78752;SDS011;68072;51.688;7.842;2024-01-16T06:40:50;12.52;;;7.38;;
78752;SDS011;68072;51.688;7.842;2024-01-16T06:43:15;8.53;;;5.60;;
78752;SDS011;68072;51.688;7.842;2024-01-16T06:45:41;14.98;;;7.30;;
78752;SDS011;68072;51.688;7.842;2024-01-16T06:48:07;11.18;;;6.50;;
78752;SDS011;68072;51.688;7.842;2024-01-16T06:50:32;8.63;;;4.57;;
78752;SDS011;68072;51.688;7.842;2024-01-16T06:52:58;10.30;;;6.17;;
78752;SDS011;68072;51.688;7.842;2024-01-16T06:55:23;10.37;;;4.90;;
78752;SDS011;68072;51.688;7.842;2024-01-16T06:57:48;11.33;;;6.50;;
78752;SDS011;68072;51.688;7.842;2024-01-16T07:00:14;12.03;;;6.83;;
78752;SDS011;68072;51.688;7.842;2024-01-16T07:02:39;4.30;;;3.78;;
78752;SDS011;68072;51.688;7.842;2024-01-16T07:05:04;7.40;;;4.60;;
78752;SDS011;68072;51.688;7.842;2024-01-16T07:07:30;9.40;;;5.40;;
78752;SDS011;68072;51.688;7.842;2024-01-16T07:09:55;13.57;;;6.37;;
78752;SDS011;68072;51.688;7.842;2024-01-16T07:12:20;6.90;;;3.30;;
78752;SDS011;68072;51.688;7.842;2024-01-16T07:14:45;9.10;;;4.77;;
78752;SDS011;68072;51.688;7.842;2024-01-16T07:17:11;8.63;;;4.73;;
78752;SDS011;68072;51.688;7.842;2024-01-16T07:19:36;6.70;;;4.23;;
78752;SDS011;68072;51.688;7.842;2024-01-16T07:22:01;7.20;;;4.07;;
78752;SDS011;68072;51.688;7.842;2024-01-16T07:24:27;8.55;;;3.20;;
78752;SDS011;68072;51.688;7.842;2024-01-16T07:26:52;4.70;;;3.13;;
78752;SDS011;68072;51.688;7.842;2024-01-16T07:29:19;17.48;;;4.97;;
78752;SDS011;68072;51.688;7.842;2024-01-16T07:31:45;7.10;;;4.28;;
78752;SDS011;68072;51.688;7.842;2024-01-16T07:34:10;8.30;;;4.87;;
78752;SDS011;68072;51.688;7.842;2024-01-16T07:36:35;6.17;;;4.13;;
78752;SDS011;68072;51.688;7.842;2024-01-16T07:39:00;8.60;;;3.77;;
78752;SDS011;68072;51.688;7.842;2024-01-16T07:41:26;5.03;;;3.43;;
78752;SDS011;68072;51.688;7.842;2024-01-16T07:43:51;8.57;;;4.53;;
78752;SDS011;68072;51.688;7.842;2024-01-16T07:46:16;2.70;;;1.80;;
78752;SDS011;68072;51.688;7.842;2024-01-16T07:48:42;7.38;;;3.70;;
78752;SDS011;68072;51.688;7.842;2024-01-16T07:51:07;5.10;;;3.23;;
78752;SDS011;68072;51.688;7.842;2024-01-16T07:53:32;13.27;;;4.50;;
78752;SDS011;68072;51.688;7.842;2024-01-16T07:55:57;12.23;;;3.60;;
78752;SDS011;68072;51.688;7.842;2024-01-16T07:58:23;5.70;;;2.72;;
78752;SDS011;68072;51.688;7.842;2024-01-16T08:00:48;4.13;;;2.97;;
78752;SDS011;68072;51.688;7.842;2024-01-16T08:03:14;11.02;;;5.50;;
78752;SDS011;68072;51.688;7.842;2024-01-16T08:05:39;10.85;;;4.88;;
78752;SDS011;68072;51.688;7.842;2024-01-16T08:08:04;8.07;;;4.60;;
78752;SDS011;68072;51.688;7.842;2024-01-16T08:10:30;5.13;;;3.15;;
78752;SDS011;68072;51.688;7.842;2024-01-16T08:12:55;15.00;;;5.85;;
78752;SDS011;68072;51.688;7.842;2024-01-16T08:15:21;9.27;;;5.10;;
78752;SDS011;68072;51.688;7.842;2024-01-16T08:17:46;7.72;;;4.97;;
78752;SDS011;68072;51.688;7.842;2024-01-16T08:20:12;7.17;;;4.53;;
78752;SDS011;68072;51.688;7.842;2024-01-16T08:22:37;14.68;;;6.60;;
78752;SDS011;68072;51.688;7.842;2024-01-16T08:25:03;8.97;;;4.33;;
78752;SDS011;68072;51.688;7.842;2024-01-16T08:27:30;11.32;;;3.75;;
78752;SDS011;68072;51.688;7.842;2024-01-16T08:29:55;9.05;;;4.90;;
78752;SDS011;68072;51.688;7.842;2024-01-16T08:32:21;7.63;;;4.75;;
78752;SDS011;68072;51.688;7.842;2024-01-16T08:34:46;12.87;;;6.67;;
78752;SDS011;68072;51.688;7.842;2024-01-16T08:37:11;11.73;;;7.00;;
78752;SDS011;68072;51.688;7.842;2024-01-16T08:39:36;12.53;;;6.03;;
78752;SDS011;68072;51.688;7.842;2024-01-16T08:42:02;8.37;;;4.77;;
78752;SDS011;68072;51.688;7.842;2024-01-16T08:44:28;16.00;;;6.78;;
78752;SDS011;68072;51.688;7.842;2024-01-16T08:46:53;14.63;;;8.48;;
78752;SDS011;68072;51.688;7.842;2024-01-16T08:49:19;11.75;;;6.57;;
78752;SDS011;68072;51.688;7.842;2024-01-16T08:51:45;11.57;;;6.83;;
78752;SDS011;68072;51.688;7.842;2024-01-16T08:54:10;8.93;;;4.73;;
78752;SDS011;68072;51.688;7.842;2024-01-16T08:56:35;16.02;;;7.43;;
78752;SDS011;68072;51.688;7.842;2024-01-16T08:59:00;7.90;;;5.03;;
78752;SDS011;68072;51.688;7.842;2024-01-16T09:01:26;9.03;;;5.60;;
78752;SDS011;68072;51.688;7.842;2024-01-16T09:03:51;8.57;;;5.30;;
78752;SDS011;68072;51.688;7.842;2024-01-16T09:06:16;17.95;;;6.70;;
78752;SDS011;68072;51.688;7.842;2024-01-16T09:08:42;17.07;;;6.57;;
78752;SDS011;68072;51.688;7.842;2024-01-16T09:11:09;9.90;;;6.25;;
78752;SDS011;68072;51.688;7.842;2024-01-16T09:13:34;16.47;;;6.30;;
78752;SDS011;68072;51.688;7.842;2024-01-16T09:16:00;9.30;;;5.55;;
78752;SDS011;68072;51.688;7.842;2024-01-16T09:18:25;9.90;;;4.77;;
78752;SDS011;68072;51.688;7.842;2024-01-16T09:20:50;12.52;;;5.40;;
78752;SDS011;68072;51.688;7.842;2024-01-16T09:23:15;11.40;;;6.40;;
78752;SDS011;68072;51.688;7.842;2024-01-16T09:25:41;8.80;;;5.03;;
78752;SDS011;68072;51.688;7.842;2024-01-16T09:28:06;5.90;;;3.97;;
78752;SDS011;68072;51.688;7.842;2024-01-16T09:30:31;12.47;;;6.13;;
78752;SDS011;68072;51.688;7.842;2024-01-16T09:32:58;3.25;;;2.72;;
78752;SDS011;68072;51.688;7.842;2024-01-16T09:35:23;6.23;;;4.73;;
78752;SDS011;68072;51.688;7.842;2024-01-16T09:37:49;21.48;;;4.03;;
78752;SDS011;68072;51.688;7.842;2024-01-16T09:40:14;5.13;;;4.33;;
78752;SDS011;68072;51.688;7.842;2024-01-16T09:42:39;4.43;;;2.30;;
78752;SDS011;68072;51.688;7.842;2024-01-16T09:45:06;8.25;;;3.05;;
78752;SDS011;68072;51.688;7.842;2024-01-16T09:47:32;10.45;;;3.58;;
78752;SDS011;68072;51.688;7.842;2024-01-16T09:49:58;4.13;;;3.05;;
78752;SDS011;68072;51.688;7.842;2024-01-16T09:52:24;4.75;;;2.95;;
78752;SDS011;68072;51.688;7.842;2024-01-16T09:54:49;2.47;;;2.25;;
78752;SDS011;68072;51.688;7.842;2024-01-16T09:57:14;4.97;;;2.90;;
78752;SDS011;68072;51.688;7.842;2024-01-16T09:59:40;3.57;;;2.83;;
78752;SDS011;68072;51.688;7.842;2024-01-16T10:02:05;3.33;;;1.97;;
78752;SDS011;68072;51.688;7.842;2024-01-16T10:04:32;8.10;;;2.70;;
78752;SDS011;68072;51.688;7.842;2024-01-16T10:06:59;3.88;;;2.72;;
78752;SDS011;68072;51.688;7.842;2024-01-16T10:09:26;2.88;;;1.92;;
78752;SDS011;68072;51.688;7.842;2024-01-16T10:11:51;3.97;;;3.08;;
78752;SDS011;68072;51.688;7.842;2024-01-16T10:14:17;4.20;;;2.55;;
78752;SDS011;68072;51.688;7.842;2024-01-16T10:16:58;3.83;;;2.77;;
78752;SDS011;68072;51.688;7.842;2024-01-16T10:19:24;10.38;;;1.60;;
78752;SDS011;68072;51.688;7.842;2024-01-16T10:21:50;4.17;;;1.07;;
78752;SDS011;68072;51.688;7.842;2024-01-16T10:24:15;7.63;;;3.50;;
78752;SDS011;68072;51.688;7.842;2024-01-16T10:26:41;2.73;;;1.80;;
78752;SDS011;68072;51.688;7.842;2024-01-16T10:29:06;2.93;;;1.47;;
78752;SDS011;68072;51.688;7.842;2024-01-16T10:31:31;1.17;;;1.00;;
78752;SDS011;68072;51.688;7.842;2024-01-16T10:33:56;4.20;;;1.80;;
78752;SDS011;68072;51.688;7.842;2024-01-16T10:36:23;3.53;;;1.90;;
78752;SDS011;68072;51.688;7.842;2024-01-16T10:38:48;2.15;;;1.95;;
78752;SDS011;68072;51.688;7.842;2024-01-16T10:41:17;1.60;;;1.50;;
78752;SDS011;68072;51.688;7.842;2024-01-16T10:43:42;2.90;;;2.05;;
78752;SDS011;68072;51.688;7.842;2024-01-16T10:48:38;3.00;;;2.03;;
78752;SDS011;68072;51.688;7.842;2024-01-16T10:51:04;4.47;;;1.30;;
78752;SDS011;68072;51.688;7.842;2024-01-16T10:53:32;6.05;;;2.00;;
78752;SDS011;68072;51.688;7.842;2024-01-16T10:55:57;8.43;;;1.30;;
78752;SDS011;68072;51.688;7.842;2024-01-16T10:58:24;5.28;;;1.73;;
78752;SDS011;68072;51.688;7.842;2024-01-16T11:00:51;8.35;;;2.22;;
78752;SDS011;68072;51.688;7.842;2024-01-16T11:05:42;2.07;;;0.50;;
78752;SDS011;68072;51.688;7.842;2024-01-16T11:08:08;3.35;;;1.60;;
78752;SDS011;68072;51.688;7.842;2024-01-16T11:10:33;4.55;;;2.17;;
78752;SDS011;68072;51.688;7.842;2024-01-16T11:13:00;5.10;;;1.30;;
78752;SDS011;68072;51.688;7.842;2024-01-16T11:15:25;1.88;;;1.63;;
78752;SDS011;68072;51.688;7.842;2024-01-16T11:17:53;3.75;;;1.48;;
78752;SDS011;68072;51.688;7.842;2024-01-16T11:20:18;4.95;;;2.20;;
78752;SDS011;68072;51.688;7.842;2024-01-16T11:22:44;7.63;;;1.77;;
78752;SDS011;68072;51.688;7.842;2024-01-16T11:25:13;3.42;;;1.60;;
78752;SDS011;68072;51.688;7.842;2024-01-16T11:27:39;3.35;;;1.55;;
78752;SDS011;68072;51.688;7.842;2024-01-16T11:30:05;8.98;;;2.05;;
78752;SDS011;68072;51.688;7.842;2024-01-16T11:32:32;1.17;;;1.08;;
78752;SDS011;68072;51.688;7.842;2024-01-16T11:34:58;3.50;;;0.98;;
78752;SDS011;68072;51.688;7.842;2024-01-16T11:37:30;2.70;;;1.25;;
78752;SDS011;68072;51.688;7.842;2024-01-16T11:42:41;2.40;;;0.90;;
78752;SDS011;68072;51.688;7.842;2024-01-16T11:45:08;1.50;;;1.40;;
78752;SDS011;68072;51.688;7.842;2024-01-16T11:47:33;2.53;;;1.20;;
78752;SDS011;68072;51.688;7.842;2024-01-16T11:50:12;6.07;;;1.50;;
78752;SDS011;68072;51.688;7.842;2024-01-16T11:52:44;1.50;;;1.27;;
78752;SDS011;68072;51.688;7.842;2024-01-16T11:55:28;0.82;;;0.75;;
78752;SDS011;68072;51.688;7.842;2024-01-16T11:58:05;4.88;;;1.48;;
78752;SDS011;68072;51.688;7.842;2024-01-16T12:00:36;2.22;;;1.45;;
78752;SDS011;68072;51.688;7.842;2024-01-16T12:03:02;1.27;;;1.17;;
78752;SDS011;68072;51.688;7.842;2024-01-16T12:05:30;2.78;;;1.98;;
78752;SDS011;68072;51.688;7.842;2024-01-16T12:07:55;2.33;;;1.33;;
78752;SDS011;68072;51.688;7.842;2024-01-16T12:10:21;6.67;;;1.63;;
78752;SDS011;68072;51.688;7.842;2024-01-16T12:12:47;1.80;;;1.25;;
78752;SDS011;68072;51.688;7.842;2024-01-16T12:15:16;6.47;;;1.73;;
78752;SDS011;68072;51.688;7.842;2024-01-16T12:17:54;1.00;;;0.90;;
78752;SDS011;68072;51.688;7.842;2024-01-16T12:20:20;8.65;;;2.13;;
78752;SDS011;68072;51.688;7.842;2024-01-16T12:22:52;1.38;;;1.13;;
78752;SDS011;68072;51.688;7.842;2024-01-16T12:25:19;3.45;;;1.45;;
78752;SDS011;68072;51.688;7.842;2024-01-16T12:27:44;1.45;;;1.35;;
78752;SDS011;68072;51.688;7.842;2024-01-16T12:30:10;5.90;;;1.70;;
78752;SDS011;68072;51.688;7.842;2024-01-16T12:32:38;4.15;;;2.03;;
78752;SDS011;68072;51.688;7.842;2024-01-16T12:35:03;0.90;;;0.77;;
78752;SDS011;68072;51.688;7.842;2024-01-16T12:37:29;3.22;;;2.03;;
78752;SDS011;68072;51.688;7.842;2024-01-16T12:39:55;2.40;;;1.60;;
78752;SDS011;68072;51.688;7.842;2024-01-16T12:42:22;1.65;;;1.48;;
78752;SDS011;68072;51.688;7.842;2024-01-16T12:44:47;4.60;;;1.70;;
78752;SDS011;68072;51.688;7.842;2024-01-16T12:47:15;1.50;;;1.23;;
78752;SDS011;68072;51.688;7.842;2024-01-16T12:49:41;6.60;;;1.77;;
78752;SDS011;68072;51.688;7.842;2024-01-16T12:52:22;6.07;;;1.60;;
78752;SDS011;68072;51.688;7.842;2024-01-16T12:54:59;2.03;;;1.50;;
78752;SDS011;68072;51.688;7.842;2024-01-16T13:02:22;1.40;;;0.75;;
78752;SDS011;68072;51.688;7.842;2024-01-16T13:04:48;2.75;;;1.67;;
78752;SDS011;68072;51.688;7.842;2024-01-16T13:07:20;1.55;;;1.10;;
78752;SDS011;68072;51.688;7.842;2024-01-16T13:09:45;4.67;;;2.37;;
78752;SDS011;68072;51.688;7.842;2024-01-16T13:12:10;0.73;;;0.60;;
78752;SDS011;68072;51.688;7.842;2024-01-16T13:14:44;3.95;;;1.73;;
78752;SDS011;68072;51.688;7.842;2024-01-16T13:17:09;4.22;;;1.73;;
78752;SDS011;68072;51.688;7.842;2024-01-16T13:19:35;5.68;;;2.28;;
78752;SDS011;68072;51.688;7.842;2024-01-16T13:22:01;1.08;;;1.08;;
78752;SDS011;68072;51.688;7.842;2024-01-16T13:24:26;4.00;;;1.60;;
78752;SDS011;68072;51.688;7.842;2024-01-16T13:26:51;4.43;;;2.53;;
78752;SDS011;68072;51.688;7.842;2024-01-16T13:29:17;6.53;;;1.57;;
78752;SDS011;68072;51.688;7.842;2024-01-16T13:31:42;1.57;;;1.47;;
78752;SDS011;68072;51.688;7.842;2024-01-16T13:34:08;2.10;;;1.60;;
78752;SDS011;68072;51.688;7.842;2024-01-16T13:36:34;2.83;;;1.60;;
78752;SDS011;68072;51.688;7.842;2024-01-16T13:38:59;3.72;;;1.70;;
78752;SDS011;68072;51.688;7.842;2024-01-16T13:41:24;3.07;;;1.90;;
78752;SDS011;68072;51.688;7.842;2024-01-16T13:43:49;4.85;;;1.70;;
78752;SDS011;68072;51.688;7.842;2024-01-16T13:46:15;1.23;;;1.13;;
78752;SDS011;68072;51.688;7.842;2024-01-16T13:48:42;2.38;;;1.38;;
78752;SDS011;68072;51.688;7.842;2024-01-16T13:51:07;4.53;;;1.85;;
78752;SDS011;68072;51.688;7.842;2024-01-16T13:53:33;5.03;;;1.92;;
78752;SDS011;68072;51.688;7.842;2024-01-16T13:55:59;1.98;;;0.90;;
78752;SDS011;68072;51.688;7.842;2024-01-16T13:58:25;2.83;;;1.60;;
78752;SDS011;68072;51.688;7.842;2024-01-16T14:00:51;5.23;;;2.20;;
78752;SDS011;68072;51.688;7.842;2024-01-16T14:03:16;3.27;;;1.90;;
78752;SDS011;68072;51.688;7.842;2024-01-16T14:05:42;3.30;;;1.27;;
78752;SDS011;68072;51.688;7.842;2024-01-16T14:08:08;3.70;;;1.73;;
78752;SDS011;68072;51.688;7.842;2024-01-16T14:10:33;2.10;;;1.97;;
78752;SDS011;68072;51.688;7.842;2024-01-16T14:12:58;1.13;;;1.03;;
78752;SDS011;68072;51.688;7.842;2024-01-16T14:15:23;2.67;;;1.83;;
78752;SDS011;68072;51.688;7.842;2024-01-16T14:20:15;4.53;;;1.67;;
78752;SDS011;68072;51.688;7.842;2024-01-16T14:22:41;3.25;;;1.83;;
78752;SDS011;68072;51.688;7.842;2024-01-16T14:25:09;8.02;;;2.30;;
78752;SDS011;68072;51.688;7.842;2024-01-16T14:30:09;3.67;;;2.05;;
78752;SDS011;68072;51.688;7.842;2024-01-16T14:32:36;7.85;;;2.28;;
78752;SDS011;68072;51.688;7.842;2024-01-16T14:35:03;3.00;;;1.80;;
78752;SDS011;68072;51.688;7.842;2024-01-16T14:37:29;2.60;;;1.13;;
78752;SDS011;68072;51.688;7.842;2024-01-16T14:39:55;3.43;;;2.50;;
78752;SDS011;68072;51.688;7.842;2024-01-16T14:42:20;7.30;;;2.23;;
78752;SDS011;68072;51.688;7.842;2024-01-16T14:44:47;3.97;;;1.70;;
78752;SDS011;68072;51.688;7.842;2024-01-16T14:47:12;2.83;;;2.00;;
78752;SDS011;68072;51.688;7.842;2024-01-16T14:49:38;6.85;;;2.20;;
78752;SDS011;68072;51.688;7.842;2024-01-16T14:52:03;4.67;;;2.07;;
78752;SDS011;68072;51.688;7.842;2024-01-16T14:54:29;4.32;;;2.42;;
78752;SDS011;68072;51.688;7.842;2024-01-16T14:56:54;4.13;;;2.03;;